Terminal Aerodrome Forecast
Issued by NWS Greer, SC

Home | Current Version | Previous Version | Text Only | Print | Product List | Glossary On
Versions: 1 2 3 4 5 6 7 8 9 10 11 12 13 14 15 16 17 18 19 20 21 22 23 24 25 26 27 28
000
FTUS42 KGSP 240538
TAFCLT
TAF
KCLT 240538Z 2406/2506 22004KT 6SM BR OVC008
      TEMPO 2407/2411 3SM -SHRA BR OVC003
     FM241500 15006KT P6SM VCTS OVC010CB
     FM241800 17010KT P6SM VCTS BKN015CB PROB30 2418/2424 4SM TSRA
      OVC010CB
     FM250400 19007KT P6SM BKN080=

USA.gov is the U.S. government's official web portal to all federal, state and local government web resources and services.